sensor_id;sensor_type;location;lat;lon;timestamp;P1;durP1;ratioP1;P2;durP2;ratioP2
4096;SDS011;2062;50.694;7.246;2023-02-28T00:00:29;5.53;;;1.60;;
4096;SDS011;2062;50.694;7.246;2023-02-28T00:02:56;5.25;;;1.60;;
4096;SDS011;2062;50.694;7.246;2023-02-28T00:05:24;5.32;;;1.38;;
4096;SDS011;2062;50.694;7.246;2023-02-28T00:07:52;6.90;;;2.03;;
4096;SDS011;2062;50.694;7.246;2023-02-28T00:10:20;6.90;;;2.10;;
4096;SDS011;2062;50.694;7.246;2023-02-28T00:12:50;7.60;;;1.77;;
4096;SDS011;2062;50.694;7.246;2023-02-28T00:15:18;5.72;;;1.60;;
4096;SDS011;2062;50.694;7.246;2023-02-28T00:17:45;7.82;;;1.65;;
4096;SDS011;2062;50.694;7.246;2023-02-28T00:20:12;8.15;;;1.52;;
4096;SDS011;2062;50.694;7.246;2023-02-28T00:22:40;5.18;;;1.60;;
4096;SDS011;2062;50.694;7.246;2023-02-28T00:25:08;4.83;;;1.50;;
4096;SDS011;2062;50.694;7.246;2023-02-28T00:27:36;6.80;;;1.70;;
4096;SDS011;2062;50.694;7.246;2023-02-28T00:30:07;7.85;;;1.73;;
4096;SDS011;2062;50.694;7.246;2023-02-28T00:32:36;5.88;;;1.60;;
4096;SDS011;2062;50.694;7.246;2023-02-28T00:35:03;5.70;;;1.60;;
4096;SDS011;2062;50.694;7.246;2023-02-28T00:37:31;6.17;;;1.80;;
4096;SDS011;2062;50.694;7.246;2023-02-28T00:39:58;7.05;;;1.88;;
4096;SDS011;2062;50.694;7.246;2023-02-28T00:42:25;5.03;;;1.60;;
4096;SDS011;2062;50.694;7.246;2023-02-28T00:44:51;4.47;;;1.27;;
4096;SDS011;2062;50.694;7.246;2023-02-28T00:47:20;4.18;;;1.35;;
4096;SDS011;2062;50.694;7.246;2023-02-28T00:49:47;8.37;;;1.90;;
4096;SDS011;2062;50.694;7.246;2023-02-28T00:52:14;5.97;;;1.45;;
4096;SDS011;2062;50.694;7.246;2023-02-28T00:54:40;5.93;;;1.50;;
4096;SDS011;2062;50.694;7.246;2023-02-28T00:57:07;4.35;;;1.30;;
4096;SDS011;2062;50.694;7.246;2023-02-28T00:59:34;6.40;;;1.48;;
4096;SDS011;2062;50.694;7.246;2023-02-28T01:02:01;5.40;;;1.53;;
4096;SDS011;2062;50.694;7.246;2023-02-28T01:04:29;5.18;;;1.30;;
4096;SDS011;2062;50.694;7.246;2023-02-28T01:06:56;6.97;;;1.70;;
4096;SDS011;2062;50.694;7.246;2023-02-28T01:09:23;5.85;;;1.65;;
4096;SDS011;2062;50.694;7.246;2023-02-28T01:11:50;6.63;;;1.42;;
4096;SDS011;2062;50.694;7.246;2023-02-28T01:14:17;6.07;;;1.43;;
4096;SDS011;2062;50.694;7.246;2023-02-28T01:16:44;4.70;;;1.38;;
4096;SDS011;2062;50.694;7.246;2023-02-28T01:19:10;5.82;;;1.75;;
4096;SDS011;2062;50.694;7.246;2023-02-28T01:21:39;7.63;;;1.58;;
4096;SDS011;2062;50.694;7.246;2023-02-28T01:24:06;8.95;;;1.35;;
4096;SDS011;2062;50.694;7.246;2023-02-28T01:26:33;5.90;;;1.70;;
4096;SDS011;2062;50.694;7.246;2023-02-28T01:29:00;5.25;;;1.55;;
4096;SDS011;2062;50.694;7.246;2023-02-28T01:31:27;5.43;;;1.60;;
4096;SDS011;2062;50.694;7.246;2023-02-28T01:33:54;5.63;;;1.92;;
4096;SDS011;2062;50.694;7.246;2023-02-28T01:36:22;5.03;;;1.55;;
4096;SDS011;2062;50.694;7.246;2023-02-28T01:38:51;5.30;;;1.40;;
4096;SDS011;2062;50.694;7.246;2023-02-28T01:41:19;4.72;;;1.40;;
4096;SDS011;2062;50.694;7.246;2023-02-28T01:43:55;4.93;;;1.40;;
4096;SDS011;2062;50.694;7.246;2023-02-28T01:46:29;5.65;;;1.15;;
4096;SDS011;2062;50.694;7.246;2023-02-28T01:48:58;5.35;;;1.55;;
4096;SDS011;2062;50.694;7.246;2023-02-28T01:51:31;4.20;;;1.27;;
4096;SDS011;2062;50.694;7.246;2023-02-28T01:54:05;7.95;;;1.88;;
4096;SDS011;2062;50.694;7.246;2023-02-28T01:56:39;4.70;;;1.30;;
4096;SDS011;2062;50.694;7.246;2023-02-28T01:59:10;6.65;;;1.60;;
4096;SDS011;2062;50.694;7.246;2023-02-28T02:01:40;6.78;;;1.40;;
4096;SDS011;2062;50.694;7.246;2023-02-28T02:04:07;6.17;;;1.43;;
4096;SDS011;2062;50.694;7.246;2023-02-28T02:06:36;6.35;;;1.60;;
4096;SDS011;2062;50.694;7.246;2023-02-28T02:09:06;5.43;;;1.70;;
4096;SDS011;2062;50.694;7.246;2023-02-28T02:11:33;5.25;;;1.30;;
4096;SDS011;2062;50.694;7.246;2023-02-28T02:14:10;8.77;;;1.50;;
4096;SDS011;2062;50.694;7.246;2023-02-28T02:16:52;5.93;;;1.60;;
4096;SDS011;2062;50.694;7.246;2023-02-28T02:19:38;4.43;;;1.48;;
4096;SDS011;2062;50.694;7.246;2023-02-28T02:22:43;5.80;;;1.50;;
4096;SDS011;2062;50.694;7.246;2023-02-28T02:25:30;5.45;;;1.50;;
4096;SDS011;2062;50.694;7.246;2023-02-28T02:31:27;4.43;;;1.17;;
4096;SDS011;2062;50.694;7.246;2023-02-28T02:34:20;5.20;;;1.40;;
4096;SDS011;2062;50.694;7.246;2023-02-28T02:36:53;4.28;;;1.20;;
4096;SDS011;2062;50.694;7.246;2023-02-28T02:39:30;6.90;;;1.40;;
4096;SDS011;2062;50.694;7.246;2023-02-28T02:42:11;4.88;;;1.52;;
4096;SDS011;2062;50.694;7.246;2023-02-28T02:44:45;8.43;;;1.47;;
4096;SDS011;2062;50.694;7.246;2023-02-28T02:47:14;5.03;;;1.40;;
4096;SDS011;2062;50.694;7.246;2023-02-28T02:49:46;4.88;;;1.25;;
4096;SDS011;2062;50.694;7.246;2023-02-28T02:52:16;4.65;;;1.30;;
4096;SDS011;2062;50.694;7.246;2023-02-28T02:54:48;5.05;;;1.42;;
4096;SDS011;2062;50.694;7.246;2023-02-28T02:57:21;5.40;;;1.40;;
4096;SDS011;2062;50.694;7.246;2023-02-28T02:59:52;4.53;;;1.38;;
4096;SDS011;2062;50.694;7.246;2023-02-28T03:02:21;4.15;;;1.30;;
4096;SDS011;2062;50.694;7.246;2023-02-28T03:04:52;4.70;;;1.20;;
4096;SDS011;2062;50.694;7.246;2023-02-28T03:07:25;5.13;;;1.58;;
4096;SDS011;2062;50.694;7.246;2023-02-28T03:09:52;4.77;;;1.60;;
4096;SDS011;2062;50.694;7.246;2023-02-28T03:12:21;7.53;;;1.52;;
4096;SDS011;2062;50.694;7.246;2023-02-28T03:14:58;3.80;;;1.00;;
4096;SDS011;2062;50.694;7.246;2023-02-28T03:17:38;5.45;;;1.23;;
4096;SDS011;2062;50.694;7.246;2023-02-28T03:20:17;5.63;;;1.38;;
4096;SDS011;2062;50.694;7.246;2023-02-28T03:22:57;3.97;;;1.20;;
4096;SDS011;2062;50.694;7.246;2023-02-28T03:25:32;4.20;;;1.25;;
4096;SDS011;2062;50.694;7.246;2023-02-28T03:28:05;4.90;;;1.23;;
4096;SDS011;2062;50.694;7.246;2023-02-28T03:30:39;4.20;;;1.08;;
4096;SDS011;2062;50.694;7.246;2023-02-28T03:33:12;6.00;;;1.38;;
4096;SDS011;2062;50.694;7.246;2023-02-28T03:35:43;4.83;;;1.23;;
4096;SDS011;2062;50.694;7.246;2023-02-28T03:38:14;4.80;;;1.40;;
4096;SDS011;2062;50.694;7.246;2023-02-28T03:40:46;4.18;;;1.10;;
4096;SDS011;2062;50.694;7.246;2023-02-28T03:43:18;6.38;;;1.25;;
4096;SDS011;2062;50.694;7.246;2023-02-28T03:45:48;4.00;;;1.08;;
4096;SDS011;2062;50.694;7.246;2023-02-28T03:48:18;4.90;;;1.47;;
4096;SDS011;2062;50.694;7.246;2023-02-28T03:50:50;6.28;;;1.50;;
4096;SDS011;2062;50.694;7.246;2023-02-28T03:53:22;4.72;;;1.40;;
4096;SDS011;2062;50.694;7.246;2023-02-28T03:55:53;4.00;;;1.25;;
4096;SDS011;2062;50.694;7.246;2023-02-28T03:58:24;4.57;;;1.50;;
4096;SDS011;2062;50.694;7.246;2023-02-28T04:00:57;7.90;;;1.50;;
4096;SDS011;2062;50.694;7.246;2023-02-28T04:03:32;6.35;;;1.67;;
4096;SDS011;2062;50.694;7.246;2023-02-28T04:06:02;5.47;;;1.40;;
4096;SDS011;2062;50.694;7.246;2023-02-28T04:08:30;5.65;;;1.50;;
4096;SDS011;2062;50.694;7.246;2023-02-28T04:10:58;4.53;;;1.40;;
4096;SDS011;2062;50.694;7.246;2023-02-28T04:13:30;4.50;;;1.43;;
4096;SDS011;2062;50.694;7.246;2023-02-28T04:15:57;7.43;;;1.40;;
4096;SDS011;2062;50.694;7.246;2023-02-28T04:18:24;4.80;;;1.40;;
4096;SDS011;2062;50.694;7.246;2023-02-28T04:20:51;4.65;;;1.48;;
4096;SDS011;2062;50.694;7.246;2023-02-28T04:23:19;5.30;;;1.48;;
4096;SDS011;2062;50.694;7.246;2023-02-28T04:25:46;6.07;;;1.53;;
4096;SDS011;2062;50.694;7.246;2023-02-28T04:28:13;5.13;;;1.45;;
4096;SDS011;2062;50.694;7.246;2023-02-28T04:30:40;5.22;;;1.58;;
4096;SDS011;2062;50.694;7.246;2023-02-28T04:33:06;4.63;;;1.20;;
4096;SDS011;2062;50.694;7.246;2023-02-28T04:35:33;4.68;;;1.55;;
4096;SDS011;2062;50.694;7.246;2023-02-28T04:38:00;6.70;;;1.87;;
4096;SDS011;2062;50.694;7.246;2023-02-28T04:40:28;4.10;;;1.40;;
4096;SDS011;2062;50.694;7.246;2023-02-28T04:42:55;6.05;;;1.52;;
4096;SDS011;2062;50.694;7.246;2023-02-28T04:45:21;8.45;;;1.55;;
4096;SDS011;2062;50.694;7.246;2023-02-28T04:47:48;6.32;;;1.92;;
4096;SDS011;2062;50.694;7.246;2023-02-28T04:50:15;4.87;;;1.63;;
4096;SDS011;2062;50.694;7.246;2023-02-28T04:52:42;10.25;;;1.73;;
4096;SDS011;2062;50.694;7.246;2023-02-28T04:55:09;5.78;;;1.65;;
4096;SDS011;2062;50.694;7.246;2023-02-28T04:57:37;7.07;;;1.48;;
4096;SDS011;2062;50.694;7.246;2023-02-28T05:00:04;4.78;;;1.55;;
4096;SDS011;2062;50.694;7.246;2023-02-28T05:02:36;5.13;;;1.80;;
4096;SDS011;2062;50.694;7.246;2023-02-28T05:05:03;5.63;;;1.63;;
4096;SDS011;2062;50.694;7.246;2023-02-28T05:07:30;4.38;;;1.45;;
4096;SDS011;2062;50.694;7.246;2023-02-28T05:09:57;5.35;;;1.70;;
4096;SDS011;2062;50.694;7.246;2023-02-28T05:12:24;4.97;;;1.65;;
4096;SDS011;2062;50.694;7.246;2023-02-28T05:14:52;5.60;;;1.73;;
4096;SDS011;2062;50.694;7.246;2023-02-28T05:17:19;5.80;;;1.80;;
4096;SDS011;2062;50.694;7.246;2023-02-28T05:19:46;4.38;;;1.33;;
4096;SDS011;2062;50.694;7.246;2023-02-28T05:22:13;7.53;;;1.63;;
4096;SDS011;2062;50.694;7.246;2023-02-28T05:24:41;6.45;;;1.45;;
4096;SDS011;2062;50.694;7.246;2023-02-28T05:27:08;5.43;;;1.53;;
4096;SDS011;2062;50.694;7.246;2023-02-28T05:29:35;4.85;;;1.65;;
4096;SDS011;2062;50.694;7.246;2023-02-28T05:32:08;6.63;;;1.90;;
4096;SDS011;2062;50.694;7.246;2023-02-28T05:34:36;5.45;;;1.80;;
4096;SDS011;2062;50.694;7.246;2023-02-28T05:37:04;6.53;;;2.00;;
4096;SDS011;2062;50.694;7.246;2023-02-28T05:39:31;4.70;;;1.33;;
4096;SDS011;2062;50.694;7.246;2023-02-28T05:41:58;5.95;;;1.77;;
4096;SDS011;2062;50.694;7.246;2023-02-28T05:44:25;4.85;;;1.45;;
4096;SDS011;2062;50.694;7.246;2023-02-28T05:46:51;5.85;;;1.73;;
4096;SDS011;2062;50.694;7.246;2023-02-28T05:49:19;7.85;;;2.05;;
4096;SDS011;2062;50.694;7.246;2023-02-28T05:51:46;5.30;;;1.63;;
4096;SDS011;2062;50.694;7.246;2023-02-28T05:54:13;5.32;;;1.80;;
4096;SDS011;2062;50.694;7.246;2023-02-28T05:56:40;6.43;;;1.70;;
4096;SDS011;2062;50.694;7.246;2023-02-28T05:59:09;9.05;;;2.05;;
4096;SDS011;2062;50.694;7.246;2023-02-28T06:01:37;7.47;;;1.90;;
4096;SDS011;2062;50.694;7.246;2023-02-28T06:04:24;5.23;;;1.47;;
4096;SDS011;2062;50.694;7.246;2023-02-28T06:06:50;5.22;;;1.77;;
4096;SDS011;2062;50.694;7.246;2023-02-28T06:09:18;5.55;;;1.80;;
4096;SDS011;2062;50.694;7.246;2023-02-28T06:11:45;6.72;;;1.80;;
4096;SDS011;2062;50.694;7.246;2023-02-28T06:14:13;5.38;;;2.00;;
4096;SDS011;2062;50.694;7.246;2023-02-28T06:16:41;7.77;;;2.07;;
4096;SDS011;2062;50.694;7.246;2023-02-28T06:19:08;5.90;;;2.10;;
4096;SDS011;2062;50.694;7.246;2023-02-28T06:21:37;8.50;;;2.72;;
4096;SDS011;2062;50.694;7.246;2023-02-28T06:24:04;6.07;;;1.98;;
4096;SDS011;2062;50.694;7.246;2023-02-28T06:26:31;6.10;;;2.17;;
4096;SDS011;2062;50.694;7.246;2023-02-28T06:28:58;6.00;;;2.00;;
4096;SDS011;2062;50.694;7.246;2023-02-28T06:31:26;6.53;;;2.10;;
4096;SDS011;2062;50.694;7.246;2023-02-28T06:33:54;8.85;;;2.25;;
4096;SDS011;2062;50.694;7.246;2023-02-28T06:36:21;5.45;;;2.00;;
4096;SDS011;2062;50.694;7.246;2023-02-28T06:38:49;6.40;;;2.25;;
4096;SDS011;2062;50.694;7.246;2023-02-28T06:41:19;6.30;;;2.20;;
4096;SDS011;2062;50.694;7.246;2023-02-28T06:43:47;5.85;;;1.70;;
4096;SDS011;2062;50.694;7.246;2023-02-28T06:46:14;6.30;;;2.00;;
4096;SDS011;2062;50.694;7.246;2023-02-28T06:48:40;5.68;;;2.10;;
4096;SDS011;2062;50.694;7.246;2023-02-28T06:51:09;4.60;;;1.50;;
4096;SDS011;2062;50.694;7.246;2023-02-28T06:53:38;5.20;;;1.97;;
4096;SDS011;2062;50.694;7.246;2023-02-28T06:56:07;7.05;;;2.05;;
4096;SDS011;2062;50.694;7.246;2023-02-28T06:58:36;5.45;;;1.70;;
4096;SDS011;2062;50.694;7.246;2023-02-28T07:01:04;4.90;;;1.70;;
4096;SDS011;2062;50.694;7.246;2023-02-28T07:03:32;5.35;;;1.70;;
4096;SDS011;2062;50.694;7.246;2023-02-28T07:05:58;5.23;;;1.53;;
4096;SDS011;2062;50.694;7.246;2023-02-28T07:08:26;4.63;;;1.55;;
4096;SDS011;2062;50.694;7.246;2023-02-28T07:10:53;5.72;;;1.70;;
4096;SDS011;2062;50.694;7.246;2023-02-28T07:13:21;5.70;;;1.70;;
4096;SDS011;2062;50.694;7.246;2023-02-28T07:15:55;5.35;;;1.83;;
4096;SDS011;2062;50.694;7.246;2023-02-28T07:18:22;5.57;;;1.70;;
4096;SDS011;2062;50.694;7.246;2023-02-28T07:20:49;6.53;;;1.90;;
4096;SDS011;2062;50.694;7.246;2023-02-28T07:23:17;5.05;;;1.60;;
4096;SDS011;2062;50.694;7.246;2023-02-28T07:25:44;5.07;;;2.05;;
4096;SDS011;2062;50.694;7.246;2023-02-28T07:28:11;5.35;;;1.80;;
4096;SDS011;2062;50.694;7.246;2023-02-28T07:30:40;8.07;;;2.10;;
4096;SDS011;2062;50.694;7.246;2023-02-28T07:33:07;5.75;;;2.38;;
4096;SDS011;2062;50.694;7.246;2023-02-28T07:35:34;6.10;;;2.30;;
4096;SDS011;2062;50.694;7.246;2023-02-28T07:38:01;5.38;;;2.00;;
4096;SDS011;2062;50.694;7.246;2023-02-28T07:40:29;7.38;;;2.20;;
4096;SDS011;2062;50.694;7.246;2023-02-28T07:42:56;6.87;;;2.20;;
4096;SDS011;2062;50.694;7.246;2023-02-28T07:45:24;8.73;;;2.28;;
4096;SDS011;2062;50.694;7.246;2023-02-28T07:47:52;5.88;;;2.42;;
4096;SDS011;2062;50.694;7.246;2023-02-28T07:50:19;6.13;;;2.45;;
4096;SDS011;2062;50.694;7.246;2023-02-28T07:52:46;6.45;;;2.28;;
4096;SDS011;2062;50.694;7.246;2023-02-28T07:55:13;5.43;;;2.03;;
4096;SDS011;2062;50.694;7.246;2023-02-28T07:57:41;6.68;;;2.38;;
4096;SDS011;2062;50.694;7.246;2023-02-28T08:00:10;7.40;;;2.53;;
4096;SDS011;2062;50.694;7.246;2023-02-28T08:02:38;5.05;;;2.10;;
4096;SDS011;2062;50.694;7.246;2023-02-28T08:05:07;6.28;;;2.25;;
4096;SDS011;2062;50.694;7.246;2023-02-28T08:07:34;6.50;;;2.53;;
4096;SDS011;2062;50.694;7.246;2023-02-28T08:10:01;6.50;;;2.13;;
4096;SDS011;2062;50.694;7.246;2023-02-28T08:12:30;7.00;;;2.30;;
4096;SDS011;2062;50.694;7.246;2023-02-28T08:14:57;5.97;;;2.42;;
4096;SDS011;2062;50.694;7.246;2023-02-28T08:17:24;8.02;;;2.00;;
4096;SDS011;2062;50.694;7.246;2023-02-28T08:19:51;5.03;;;1.87;;
4096;SDS011;2062;50.694;7.246;2023-02-28T08:22:19;5.97;;;2.35;;
4096;SDS011;2062;50.694;7.246;2023-02-28T08:24:46;6.32;;;2.35;;
4096;SDS011;2062;50.694;7.246;2023-02-28T08:27:14;4.63;;;1.95;;
4096;SDS011;2062;50.694;7.246;2023-02-28T08:29:40;5.20;;;2.00;;
4096;SDS011;2062;50.694;7.246;2023-02-28T08:32:07;5.87;;;1.90;;
4096;SDS011;2062;50.694;7.246;2023-02-28T08:34:34;5.43;;;1.58;;
4096;SDS011;2062;50.694;7.246;2023-02-28T08:37:01;5.65;;;1.77;;
4096;SDS011;2062;50.694;7.246;2023-02-28T08:39:29;6.22;;;1.80;;
4096;SDS011;2062;50.694;7.246;2023-02-28T08:41:56;5.75;;;1.75;;
4096;SDS011;2062;50.694;7.246;2023-02-28T08:44:23;5.50;;;1.50;;
4096;SDS011;2062;50.694;7.246;2023-02-28T08:46:50;5.40;;;1.80;;
4096;SDS011;2062;50.694;7.246;2023-02-28T08:49:17;5.05;;;1.70;;
4096;SDS011;2062;50.694;7.246;2023-02-28T08:51:44;5.75;;;1.50;;
4096;SDS011;2062;50.694;7.246;2023-02-28T08:54:12;6.55;;;1.60;;
4096;SDS011;2062;50.694;7.246;2023-02-28T08:56:42;5.53;;;1.50;;
4096;SDS011;2062;50.694;7.246;2023-02-28T08:59:09;4.95;;;1.65;;
4096;SDS011;2062;50.694;7.246;2023-02-28T09:01:35;4.70;;;1.60;;
4096;SDS011;2062;50.694;7.246;2023-02-28T09:04:02;4.45;;;1.63;;
4096;SDS011;2062;50.694;7.246;2023-02-28T09:06:29;6.03;;;1.70;;
4096;SDS011;2062;50.694;7.246;2023-02-28T09:08:57;5.40;;;1.80;;
4096;SDS011;2062;50.694;7.246;2023-02-28T09:11:26;4.60;;;1.55;;
4096;SDS011;2062;50.694;7.246;2023-02-28T09:13:55;4.72;;;1.80;;
4096;SDS011;2062;50.694;7.246;2023-02-28T09:16:21;5.22;;;1.85;;
4096;SDS011;2062;50.694;7.246;2023-02-28T09:18:48;6.30;;;1.67;;
4096;SDS011;2062;50.694;7.246;2023-02-28T09:21:16;4.90;;;1.60;;
4096;SDS011;2062;50.694;7.246;2023-02-28T09:23:44;5.15;;;1.60;;
4096;SDS011;2062;50.694;7.246;2023-02-28T09:26:13;5.82;;;2.00;;
4096;SDS011;2062;50.694;7.246;2023-02-28T09:28:40;5.20;;;1.67;;
4096;SDS011;2062;50.694;7.246;2023-02-28T09:31:11;5.22;;;1.77;;
4096;SDS011;2062;50.694;7.246;2023-02-28T09:33:39;5.37;;;1.90;;
4096;SDS011;2062;50.694;7.246;2023-02-28T09:36:06;5.13;;;1.70;;
4096;SDS011;2062;50.694;7.246;2023-02-28T09:38:34;5.45;;;2.08;;
4096;SDS011;2062;50.694;7.246;2023-02-28T09:41:01;5.57;;;1.95;;
4096;SDS011;2062;50.694;7.246;2023-02-28T09:43:31;4.72;;;1.70;;
4096;SDS011;2062;50.694;7.246;2023-02-28T09:46:02;5.20;;;1.70;;
4096;SDS011;2062;50.694;7.246;2023-02-28T09:48:38;5.53;;;1.65;;
4096;SDS011;2062;50.694;7.246;2023-02-28T09:51:12;4.70;;;1.77;;
4096;SDS011;2062;50.694;7.246;2023-02-28T09:53:49;4.60;;;1.65;;
4096;SDS011;2062;50.694;7.246;2023-02-28T09:56:18;5.68;;;1.73;;
4096;SDS011;2062;50.694;7.246;2023-02-28T09:58:52;4.50;;;1.60;;
4096;SDS011;2062;50.694;7.246;2023-02-28T10:01:24;5.57;;;1.90;;
4096;SDS011;2062;50.694;7.246;2023-02-28T10:03:57;5.07;;;1.83;;
4096;SDS011;2062;50.694;7.246;2023-02-28T10:06:28;5.00;;;1.70;;
4096;SDS011;2062;50.694;7.246;2023-02-28T10:09:00;5.47;;;2.10;;
4096;SDS011;2062;50.694;7.246;2023-02-28T10:11:29;5.53;;;1.80;;
4096;SDS011;2062;50.694;7.246;2023-02-28T10:14:00;4.75;;;1.85;;
4096;SDS011;2062;50.694;7.246;2023-02-28T10:16:31;5.40;;;1.90;;
4096;SDS011;2062;50.694;7.246;2023-02-28T10:19:04;5.93;;;1.92;;
4096;SDS011;2062;50.694;7.246;2023-02-28T10:21:38;6.15;;;1.75;;
4096;SDS011;2062;50.694;7.246;2023-02-28T10:24:13;5.47;;;1.50;;
4096;SDS011;2062;50.694;7.246;2023-02-28T10:26:46;6.07;;;2.05;;
4096;SDS011;2062;50.694;7.246;2023-02-28T10:29:14;5.45;;;1.88;;
4096;SDS011;2062;50.694;7.246;2023-02-28T10:31:41;4.88;;;1.58;;
4096;SDS011;2062;50.694;7.246;2023-02-28T10:34:10;5.82;;;1.98;;
4096;SDS011;2062;50.694;7.246;2023-02-28T10:36:39;5.77;;;1.97;;
4096;SDS011;2062;50.694;7.246;2023-02-28T10:42:01;4.13;;;1.50;;
4096;SDS011;2062;50.694;7.246;2023-02-28T10:44:28;4.68;;;1.63;;
4096;SDS011;2062;50.694;7.246;2023-02-28T10:46:55;6.38;;;1.75;;
4096;SDS011;2062;50.694;7.246;2023-02-28T10:49:24;4.40;;;1.50;;
4096;SDS011;2062;50.694;7.246;2023-02-28T10:51:53;6.55;;;1.88;;
4096;SDS011;2062;50.694;7.246;2023-02-28T10:54:23;4.05;;;1.50;;
4096;SDS011;2062;50.694;7.246;2023-02-28T10:57:15;4.78;;;1.70;;
4096;SDS011;2062;50.694;7.246;2023-02-28T10:59:44;5.03;;;1.80;;
4096;SDS011;2062;50.694;7.246;2023-02-28T11:02:33;4.43;;;1.70;;
4096;SDS011;2062;50.694;7.246;2023-02-28T11:05:04;5.45;;;1.80;;
4096;SDS011;2062;50.694;7.246;2023-02-28T11:07:51;5.40;;;1.77;;
4096;SDS011;2062;50.694;7.246;2023-02-28T11:10:19;5.53;;;1.90;;
4096;SDS011;2062;50.694;7.246;2023-02-28T11:12:47;6.20;;;1.88;;
4096;SDS011;2062;50.694;7.246;2023-02-28T11:15:19;4.90;;;1.70;;
4096;SDS011;2062;50.694;7.246;2023-02-28T11:17:55;4.43;;;1.60;;
4096;SDS011;2062;50.694;7.246;2023-02-28T11:20:25;5.38;;;1.80;;
4096;SDS011;2062;50.694;7.246;2023-02-28T11:22:54;5.57;;;1.60;;
4096;SDS011;2062;50.694;7.246;2023-02-28T11:25:23;5.03;;;1.65;;
4096;SDS011;2062;50.694;7.246;2023-02-28T11:27:53;5.40;;;1.70;;
4096;SDS011;2062;50.694;7.246;2023-02-28T11:30:25;4.55;;;1.60;;
4096;SDS011;2062;50.694;7.246;2023-02-28T11:32:54;5.72;;;1.90;;
4096;SDS011;2062;50.694;7.246;2023-02-28T11:35:23;6.95;;;1.70;;
4096;SDS011;2062;50.694;7.246;2023-02-28T11:37:54;5.13;;;1.83;;
4096;SDS011;2062;50.694;7.246;2023-02-28T11:40:24;4.80;;;1.50;;
4096;SDS011;2062;50.694;7.246;2023-02-28T11:43:00;6.38;;;2.08;;
4096;SDS011;2062;50.694;7.246;2023-02-28T11:45:42;4.68;;;1.73;;
4096;SDS011;2062;50.694;7.246;2023-02-28T11:48:18;5.13;;;1.77;;
4096;SDS011;2062;50.694;7.246;2023-02-28T11:50:52;7.43;;;1.92;;
4096;SDS011;2062;50.694;7.246;2023-02-28T11:53:32;4.43;;;1.80;;
4096;SDS011;2062;50.694;7.246;2023-02-28T11:56:10;4.75;;;1.80;;
4096;SDS011;2062;50.694;7.246;2023-02-28T11:58:48;5.38;;;2.00;;
4096;SDS011;2062;50.694;7.246;2023-02-28T12:01:36;7.05;;;2.10;;
4096;SDS011;2062;50.694;7.246;2023-02-28T12:04:11;6.35;;;1.83;;
4096;SDS011;2062;50.694;7.246;2023-02-28T12:06:50;4.60;;;1.73;;
4096;SDS011;2062;50.694;7.246;2023-02-28T12:09:29;4.93;;;1.80;;
4096;SDS011;2062;50.694;7.246;2023-02-28T12:12:07;4.53;;;1.70;;
4096;SDS011;2062;50.694;7.246;2023-02-28T12:14:50;5.07;;;1.73;;
4096;SDS011;2062;50.694;7.246;2023-02-28T12:17:38;4.70;;;1.83;;
4096;SDS011;2062;50.694;7.246;2023-02-28T12:20:17;4.40;;;1.73;;
4096;SDS011;2062;50.694;7.246;2023-02-28T12:22:55;5.60;;;2.05;;
4096;SDS011;2062;50.694;7.246;2023-02-28T12:25:43;5.15;;;1.80;;
4096;SDS011;2062;50.694;7.246;2023-02-28T12:28:21;5.30;;;2.00;;
4096;SDS011;2062;50.694;7.246;2023-02-28T12:30:53;5.40;;;2.22;;
4096;SDS011;2062;50.694;7.246;2023-02-28T12:33:27;4.87;;;2.20;;
4096;SDS011;2062;50.694;7.246;2023-02-28T12:35:59;5.10;;;1.90;;
4096;SDS011;2062;50.694;7.246;2023-02-28T12:38:34;5.20;;;2.05;;
4096;SDS011;2062;50.694;7.246;2023-02-28T12:41:05;5.88;;;1.88;;
4096;SDS011;2062;50.694;7.246;2023-02-28T12:43:38;5.85;;;1.95;;
4096;SDS011;2062;50.694;7.246;2023-02-28T12:46:10;4.47;;;2.00;;
4096;SDS011;2062;50.694;7.246;2023-02-28T12:48:43;4.63;;;1.88;;
4096;SDS011;2062;50.694;7.246;2023-02-28T12:51:13;6.10;;;2.00;;
4096;SDS011;2062;50.694;7.246;2023-02-28T12:53:46;5.45;;;2.08;;
4096;SDS011;2062;50.694;7.246;2023-02-28T12:56:23;7.10;;;2.33;;
4096;SDS011;2062;50.694;7.246;2023-02-28T12:58:56;4.53;;;1.80;;
4096;SDS011;2062;50.694;7.246;2023-02-28T13:01:47;5.95;;;2.00;;
4096;SDS011;2062;50.694;7.246;2023-02-28T13:10:49;5.07;;;2.28;;
4096;SDS011;2062;50.694;7.246;2023-02-28T13:13:20;5.20;;;2.10;;
4096;SDS011;2062;50.694;7.246;2023-02-28T13:15:59;4.68;;;2.00;;
4096;SDS011;2062;50.694;7.246;2023-02-28T13:18:30;4.90;;;2.10;;
4096;SDS011;2062;50.694;7.246;2023-02-28T13:21:01;5.63;;;2.08;;
4096;SDS011;2062;50.694;7.246;2023-02-28T13:23:39;4.68;;;2.05;;
4096;SDS011;2062;50.694;7.246;2023-02-28T13:26:29;4.87;;;1.93;;
4096;SDS011;2062;50.694;7.246;2023-02-28T13:29:38;5.32;;;2.00;;
4096;SDS011;2062;50.694;7.246;2023-02-28T13:32:29;5.07;;;2.20;;
4096;SDS011;2062;50.694;7.246;2023-02-28T13:38:12;5.35;;;1.90;;
4096;SDS011;2062;50.694;7.246;2023-02-28T13:44:00;5.25;;;2.20;;
4096;SDS011;2062;50.694;7.246;2023-02-28T13:46:30;5.53;;;1.92;;
4096;SDS011;2062;50.694;7.246;2023-02-28T13:51:46;4.90;;;2.20;;
4096;SDS011;2062;50.694;7.246;2023-02-28T13:54:16;5.83;;;2.20;;
4096;SDS011;2062;50.694;7.246;2023-02-28T13:56:56;5.47;;;2.33;;
4096;SDS011;2062;50.694;7.246;2023-02-28T13:59:35;5.30;;;2.25;;
4096;SDS011;2062;50.694;7.246;2023-02-28T14:02:17;6.70;;;2.13;;
4096;SDS011;2062;50.694;7.246;2023-02-28T14:05:05;6.25;;;2.10;;
4096;SDS011;2062;50.694;7.246;2023-02-28T14:07:38;5.57;;;2.50;;
4096;SDS011;2062;50.694;7.246;2023-02-28T14:10:15;5.18;;;2.20;;
4096;SDS011;2062;50.694;7.246;2023-02-28T14:12:53;7.00;;;2.67;;
4096;SDS011;2062;50.694;7.246;2023-02-28T14:15:38;5.97;;;2.53;;
4096;SDS011;2062;50.694;7.246;2023-02-28T14:18:13;6.50;;;2.70;;
4096;SDS011;2062;50.694;7.246;2023-02-28T14:20:47;5.60;;;2.80;;
4096;SDS011;2062;50.694;7.246;2023-02-28T14:23:17;6.35;;;2.50;;
4096;SDS011;2062;50.694;7.246;2023-02-28T14:25:54;6.60;;;2.55;;
4096;SDS011;2062;50.694;7.246;2023-02-28T14:28:37;5.75;;;2.83;;
4096;SDS011;2062;50.694;7.246;2023-02-28T14:31:16;6.55;;;2.55;;
4096;SDS011;2062;50.694;7.246;2023-02-28T14:33:54;6.20;;;2.70;;
4096;SDS011;2062;50.694;7.246;2023-02-28T14:36:31;6.78;;;2.80;;
4096;SDS011;2062;50.694;7.246;2023-02-28T14:39:01;7.00;;;3.15;;
4096;SDS011;2062;50.694;7.246;2023-02-28T14:41:32;5.97;;;2.83;;
4096;SDS011;2062;50.694;7.246;2023-02-28T14:44:02;7.50;;;3.15;;
4096;SDS011;2062;50.694;7.246;2023-02-28T14:46:40;5.30;;;2.50;;
4096;SDS011;2062;50.694;7.246;2023-02-28T14:49:12;7.05;;;2.80;;
4096;SDS011;2062;50.694;7.246;2023-02-28T14:51:42;6.40;;;3.03;;
4096;SDS011;2062;50.694;7.246;2023-02-28T14:54:12;6.15;;;2.80;;
4096;SDS011;2062;50.694;7.246;2023-02-28T14:56:41;6.68;;;3.17;;
4096;SDS011;2062;50.694;7.246;2023-02-28T14:59:22;7.60;;;2.80;;
4096;SDS011;2062;50.694;7.246;2023-02-28T15:01:51;6.22;;;2.80;;
4096;SDS011;2062;50.694;7.246;2023-02-28T15:04:21;6.53;;;3.10;;
4096;SDS011;2062;50.694;7.246;2023-02-28T15:07:06;7.28;;;2.70;;
4096;SDS011;2062;50.694;7.246;2023-02-28T15:09:33;8.43;;;3.20;;
4096;SDS011;2062;50.694;7.246;2023-02-28T15:12:00;5.50;;;2.70;;
4096;SDS011;2062;50.694;7.246;2023-02-28T15:14:28;7.38;;;3.03;;
4096;SDS011;2062;50.694;7.246;2023-02-28T15:16:56;7.60;;;3.20;;
4096;SDS011;2062;50.694;7.246;2023-02-28T15:19:29;6.60;;;2.63;;
4096;SDS011;2062;50.694;7.246;2023-02-28T15:21:58;8.30;;;2.97;;
4096;SDS011;2062;50.694;7.246;2023-02-28T15:24:31;7.63;;;2.97;;
4096;SDS011;2062;50.694;7.246;2023-02-28T15:27:04;6.13;;;2.78;;
4096;SDS011;2062;50.694;7.246;2023-02-28T15:29:37;7.18;;;3.40;;
4096;SDS011;2062;50.694;7.246;2023-02-28T15:32:21;6.82;;;2.95;;
4096;SDS011;2062;50.694;7.246;2023-02-28T15:34:53;5.72;;;2.50;;
4096;SDS011;2062;50.694;7.246;2023-02-28T15:37:28;6.43;;;3.03;;
4096;SDS011;2062;50.694;7.246;2023-02-28T15:40:04;6.57;;;2.85;;
4096;SDS011;2062;50.694;7.246;2023-02-28T15:42:36;7.07;;;3.05;;
4096;SDS011;2062;50.694;7.246;2023-02-28T15:45:04;6.40;;;3.17;;
4096;SDS011;2062;50.694;7.246;2023-02-28T15:47:31;6.80;;;3.20;;
4096;SDS011;2062;50.694;7.246;2023-02-28T15:50:00;11.57;;;5.20;;
4096;SDS011;2062;50.694;7.246;2023-02-28T15:52:29;13.90;;;6.82;;
4096;SDS011;2062;50.694;7.246;2023-02-28T15:55:06;10.25;;;5.38;;
4096;SDS011;2062;50.694;7.246;2023-02-28T15:57:34;9.50;;;5.30;;
4096;SDS011;2062;50.694;7.246;2023-02-28T16:00:02;9.30;;;4.35;;